sensor_id;sensor_type;location;lat;lon;timestamp;temperature;humidity
39601;DHT22;25297;44.758;11.310;2023-05-08T00:00:38;21.20;96.60
39601;DHT22;25297;44.758;11.310;2023-05-08T00:03:04;21.10;96.50
39601;DHT22;25297;44.758;11.310;2023-05-08T00:05:30;21.20;96.40
39601;DHT22;25297;44.758;11.310;2023-05-08T00:07:55;21.20;96.30
39601;DHT22;25297;44.758;11.310;2023-05-08T00:10:26;21.20;96.30
39601;DHT22;25297;44.758;11.310;2023-05-08T00:12:53;21.30;96.40
39601;DHT22;25297;44.758;11.310;2023-05-08T00:15:18;21.30;96.40
39601;DHT22;25297;44.758;11.310;2023-05-08T00:17:44;21.30;96.50
39601;DHT22;25297;44.758;11.310;2023-05-08T00:20:10;21.30;96.50
39601;DHT22;25297;44.758;11.310;2023-05-08T00:22:36;21.30;96.30
39601;DHT22;25297;44.758;11.310;2023-05-08T00:25:02;21.30;96.10
39601;DHT22;25297;44.758;11.310;2023-05-08T00:27:32;21.20;95.80
39601;DHT22;25297;44.758;11.310;2023-05-08T00:29:58;21.30;95.30
39601;DHT22;25297;44.758;11.310;2023-05-08T00:32:24;21.30;95.00
39601;DHT22;25297;44.758;11.310;2023-05-08T00:34:50;21.30;94.80
39601;DHT22;25297;44.758;11.310;2023-05-08T00:37:15;21.20;94.50
39601;DHT22;25297;44.758;11.310;2023-05-08T00:39:41;21.30;94.30
39601;DHT22;25297;44.758;11.310;2023-05-08T00:42:07;21.20;94.20
39601;DHT22;25297;44.758;11.310;2023-05-08T00:44:32;21.20;94.10
39601;DHT22;25297;44.758;11.310;2023-05-08T00:46:58;21.20;93.90
39601;DHT22;25297;44.758;11.310;2023-05-08T00:49:25;21.10;93.90
39601;DHT22;25297;44.758;11.310;2023-05-08T00:51:53;21.10;94.00
39601;DHT22;25297;44.758;11.310;2023-05-08T00:54:20;21.10;94.10
39601;DHT22;25297;44.758;11.310;2023-05-08T00:56:47;21.10;94.10
39601;DHT22;25297;44.758;11.310;2023-05-08T00:59:15;21.10;94.00
39601;DHT22;25297;44.758;11.310;2023-05-08T01:01:42;21.00;93.80
39601;DHT22;25297;44.758;11.310;2023-05-08T01:04:08;21.00;93.70
39601;DHT22;25297;44.758;11.310;2023-05-08T01:06:34;21.00;93.70
39601;DHT22;25297;44.758;11.310;2023-05-08T01:09:01;21.00;93.90
39601;DHT22;25297;44.758;11.310;2023-05-08T01:14:18;20.90;94.00
39601;DHT22;25297;44.758;11.310;2023-05-08T01:22:01;20.80;94.30
39601;DHT22;25297;44.758;11.310;2023-05-08T01:30:38;20.70;94.60
39601;DHT22;25297;44.758;11.310;2023-05-08T01:33:18;20.70;94.70
39601;DHT22;25297;44.758;11.310;2023-05-08T01:35:48;20.60;94.70
39601;DHT22;25297;44.758;11.310;2023-05-08T01:38:37;20.60;94.80
39601;DHT22;25297;44.758;11.310;2023-05-08T01:41:24;20.60;94.80
39601;DHT22;25297;44.758;11.310;2023-05-08T01:46:26;20.50;95.00
39601;DHT22;25297;44.758;11.310;2023-05-08T01:49:05;20.50;94.90
39601;DHT22;25297;44.758;11.310;2023-05-08T01:51:47;20.50;94.80
39601;DHT22;25297;44.758;11.310;2023-05-08T01:54:21;20.50;94.80
39601;DHT22;25297;44.758;11.310;2023-05-08T01:56:49;20.50;94.80
39601;DHT22;25297;44.758;11.310;2023-05-08T01:59:19;20.50;94.80
39601;DHT22;25297;44.758;11.310;2023-05-08T02:01:47;20.60;94.70
39601;DHT22;25297;44.758;11.310;2023-05-08T02:04:14;20.60;95.00
39601;DHT22;25297;44.758;11.310;2023-05-08T02:06:41;20.60;94.70
39601;DHT22;25297;44.758;11.310;2023-05-08T02:09:08;20.60;94.60
39601;DHT22;25297;44.758;11.310;2023-05-08T02:11:35;20.80;94.60
39601;DHT22;25297;44.758;11.310;2023-05-08T02:14:02;20.70;94.60
39601;DHT22;25297;44.758;11.310;2023-05-08T02:16:29;20.70;94.60
39601;DHT22;25297;44.758;11.310;2023-05-08T02:18:59;20.80;94.60
39601;DHT22;25297;44.758;11.310;2023-05-08T02:21:25;20.80;94.70
39601;DHT22;25297;44.758;11.310;2023-05-08T02:23:53;20.80;94.90
39601;DHT22;25297;44.758;11.310;2023-05-08T02:26:21;20.80;95.10
39601;DHT22;25297;44.758;11.310;2023-05-08T02:28:49;20.80;95.00
39601;DHT22;25297;44.758;11.310;2023-05-08T02:31:17;20.80;95.00
39601;DHT22;25297;44.758;11.310;2023-05-08T02:33:44;20.80;95.10
39601;DHT22;25297;44.758;11.310;2023-05-08T02:36:12;20.80;95.30
39601;DHT22;25297;44.758;11.310;2023-05-08T02:38:46;20.80;95.50
39601;DHT22;25297;44.758;11.310;2023-05-08T02:41:13;20.70;95.40
39601;DHT22;25297;44.758;11.310;2023-05-08T02:43:40;20.70;95.30
39601;DHT22;25297;44.758;11.310;2023-05-08T02:46:18;20.70;95.60
39601;DHT22;25297;44.758;11.310;2023-05-08T02:49:06;20.80;95.30
39601;DHT22;25297;44.758;11.310;2023-05-08T02:54:35;20.70;95.30
39601;DHT22;25297;44.758;11.310;2023-05-08T02:57:20;20.70;95.40
39601;DHT22;25297;44.758;11.310;2023-05-08T02:59:59;20.70;95.40
39601;DHT22;25297;44.758;11.310;2023-05-08T03:02:39;20.70;95.40
39601;DHT22;25297;44.758;11.310;2023-05-08T03:05:18;20.70;95.60
39601;DHT22;25297;44.758;11.310;2023-05-08T03:07:46;20.60;95.70
39601;DHT22;25297;44.758;11.310;2023-05-08T03:10:15;20.70;95.80
39601;DHT22;25297;44.758;11.310;2023-05-08T03:12:45;20.70;95.80
39601;DHT22;25297;44.758;11.310;2023-05-08T03:15:26;20.70;95.90
39601;DHT22;25297;44.758;11.310;2023-05-08T03:17:57;20.70;96.00
39601;DHT22;25297;44.758;11.310;2023-05-08T03:20:26;20.60;96.20
39601;DHT22;25297;44.758;11.310;2023-05-08T03:22:56;20.60;96.20
39601;DHT22;25297;44.758;11.310;2023-05-08T03:25:22;20.60;96.10
39601;DHT22;25297;44.758;11.310;2023-05-08T03:27:48;20.60;96.20
39601;DHT22;25297;44.758;11.310;2023-05-08T03:30:15;20.60;96.00
39601;DHT22;25297;44.758;11.310;2023-05-08T03:32:44;20.60;95.90
39601;DHT22;25297;44.758;11.310;2023-05-08T03:35:12;20.60;95.80
39601;DHT22;25297;44.758;11.310;2023-05-08T03:37:37;20.60;95.80
39601;DHT22;25297;44.758;11.310;2023-05-08T03:40:04;20.60;95.90
39601;DHT22;25297;44.758;11.310;2023-05-08T03:42:31;20.60;95.90
39601;DHT22;25297;44.758;11.310;2023-05-08T03:44:57;20.60;95.70
39601;DHT22;25297;44.758;11.310;2023-05-08T03:47:23;20.60;95.60
39601;DHT22;25297;44.758;11.310;2023-05-08T03:49:50;20.60;95.50
39601;DHT22;25297;44.758;11.310;2023-05-08T03:52:17;20.60;95.60
39601;DHT22;25297;44.758;11.310;2023-05-08T03:54:43;20.60;95.50
39601;DHT22;25297;44.758;11.310;2023-05-08T03:57:08;20.60;95.50
39601;DHT22;25297;44.758;11.310;2023-05-08T03:59:37;20.60;95.40
39601;DHT22;25297;44.758;11.310;2023-05-08T04:04:59;20.60;95.50
39601;DHT22;25297;44.758;11.310;2023-05-08T04:07:36;20.60;95.60
39601;DHT22;25297;44.758;11.310;2023-05-08T04:10:12;20.50;95.60
39601;DHT22;25297;44.758;11.310;2023-05-08T04:12:59;20.50;96.00
39601;DHT22;25297;44.758;11.310;2023-05-08T04:15:30;20.50;96.30
39601;DHT22;25297;44.758;11.310;2023-05-08T04:18:13;20.40;96.70
39601;DHT22;25297;44.758;11.310;2023-05-08T04:20:41;20.40;96.50
39601;DHT22;25297;44.758;11.310;2023-05-08T04:23:09;20.40;96.60
39601;DHT22;25297;44.758;11.310;2023-05-08T04:25:39;20.40;96.90
39601;DHT22;25297;44.758;11.310;2023-05-08T04:28:06;20.40;96.80
39601;DHT22;25297;44.758;11.310;2023-05-08T04:30:32;20.40;96.70
39601;DHT22;25297;44.758;11.310;2023-05-08T04:33:01;20.40;96.80
39601;DHT22;25297;44.758;11.310;2023-05-08T04:35:27;20.40;96.90
39601;DHT22;25297;44.758;11.310;2023-05-08T04:37:52;20.40;96.90
39601;DHT22;25297;44.758;11.310;2023-05-08T04:40:18;20.40;96.90
39601;DHT22;25297;44.758;11.310;2023-05-08T04:42:44;20.40;97.10
39601;DHT22;25297;44.758;11.310;2023-05-08T04:45:13;20.40;97.00
39601;DHT22;25297;44.758;11.310;2023-05-08T04:47:38;20.40;96.90
39601;DHT22;25297;44.758;11.310;2023-05-08T04:50:04;20.40;96.90
39601;DHT22;25297;44.758;11.310;2023-05-08T04:52:30;20.40;96.90
39601;DHT22;25297;44.758;11.310;2023-05-08T04:54:56;20.40;97.00
39601;DHT22;25297;44.758;11.310;2023-05-08T04:57:21;20.40;96.90
39601;DHT22;25297;44.758;11.310;2023-05-08T04:59:47;20.40;96.90
39601;DHT22;25297;44.758;11.310;2023-05-08T05:02:13;20.50;96.90
39601;DHT22;25297;44.758;11.310;2023-05-08T05:04:38;20.50;96.70
39601;DHT22;25297;44.758;11.310;2023-05-08T05:07:04;20.50;96.60
39601;DHT22;25297;44.758;11.310;2023-05-08T05:09:30;20.50;96.60
39601;DHT22;25297;44.758;11.310;2023-05-08T05:11:55;20.60;96.60
39601;DHT22;25297;44.758;11.310;2023-05-08T05:14:21;20.60;96.70
39601;DHT22;25297;44.758;11.310;2023-05-08T05:16:47;20.60;96.60
39601;DHT22;25297;44.758;11.310;2023-05-08T05:19:13;20.60;96.70
39601;DHT22;25297;44.758;11.310;2023-05-08T05:21:38;20.60;96.80
39601;DHT22;25297;44.758;11.310;2023-05-08T05:24:04;20.60;97.00
39601;DHT22;25297;44.758;11.310;2023-05-08T05:26:30;20.60;97.20
39601;DHT22;25297;44.758;11.310;2023-05-08T05:28:56;20.60;97.50
39601;DHT22;25297;44.758;11.310;2023-05-08T05:31:21;20.60;97.50
39601;DHT22;25297;44.758;11.310;2023-05-08T05:33:47;20.60;97.40
39601;DHT22;25297;44.758;11.310;2023-05-08T05:36:13;20.60;97.20
39601;DHT22;25297;44.758;11.310;2023-05-08T05:38:39;20.60;97.10
39601;DHT22;25297;44.758;11.310;2023-05-08T05:41:04;20.70;97.20
39601;DHT22;25297;44.758;11.310;2023-05-08T05:43:31;20.60;97.20
39601;DHT22;25297;44.758;11.310;2023-05-08T05:46:03;20.70;97.20
39601;DHT22;25297;44.758;11.310;2023-05-08T05:48:29;20.70;97.30
39601;DHT22;25297;44.758;11.310;2023-05-08T05:50:55;20.70;97.50
39601;DHT22;25297;44.758;11.310;2023-05-08T05:53:20;20.70;97.40
39601;DHT22;25297;44.758;11.310;2023-05-08T05:55:46;20.70;97.70
39601;DHT22;25297;44.758;11.310;2023-05-08T05:58:11;20.70;97.90
39601;DHT22;25297;44.758;11.310;2023-05-08T06:00:37;20.70;97.90
39601;DHT22;25297;44.758;11.310;2023-05-08T06:03:03;20.70;98.00
39601;DHT22;25297;44.758;11.310;2023-05-08T06:05:29;20.70;98.10
39601;DHT22;25297;44.758;11.310;2023-05-08T06:07:54;20.60;98.30
39601;DHT22;25297;44.758;11.310;2023-05-08T06:10:20;20.70;98.40
39601;DHT22;25297;44.758;11.310;2023-05-08T06:12:46;20.60;98.30
39601;DHT22;25297;44.758;11.310;2023-05-08T06:15:11;20.60;98.40
39601;DHT22;25297;44.758;11.310;2023-05-08T06:17:39;20.70;98.40
39601;DHT22;25297;44.758;11.310;2023-05-08T06:20:05;20.70;98.50
39601;DHT22;25297;44.758;11.310;2023-05-08T06:22:31;20.60;98.80
39601;DHT22;25297;44.758;11.310;2023-05-08T06:24:57;20.70;98.70
39601;DHT22;25297;44.758;11.310;2023-05-08T06:27:23;20.70;98.80
39601;DHT22;25297;44.758;11.310;2023-05-08T06:29:49;20.70;98.90
39601;DHT22;25297;44.758;11.310;2023-05-08T06:32:19;20.70;98.80
39601;DHT22;25297;44.758;11.310;2023-05-08T06:34:45;20.80;98.80
39601;DHT22;25297;44.758;11.310;2023-05-08T06:37:10;20.80;98.80
39601;DHT22;25297;44.758;11.310;2023-05-08T06:39:36;20.80;98.80
39601;DHT22;25297;44.758;11.310;2023-05-08T06:42:02;20.90;98.80
39601;DHT22;25297;44.758;11.310;2023-05-08T06:44:33;20.90;98.60
39601;DHT22;25297;44.758;11.310;2023-05-08T06:46:59;20.90;98.60
39601;DHT22;25297;44.758;11.310;2023-05-08T06:49:24;21.00;98.80
39601;DHT22;25297;44.758;11.310;2023-05-08T06:51:50;21.00;99.20
39601;DHT22;25297;44.758;11.310;2023-05-08T06:54:16;21.00;99.30
39601;DHT22;25297;44.758;11.310;2023-05-08T06:56:41;21.10;99.30
39601;DHT22;25297;44.758;11.310;2023-05-08T06:59:07;21.10;99.00
39601;DHT22;25297;44.758;11.310;2023-05-08T07:01:33;21.20;98.70
39601;DHT22;25297;44.758;11.310;2023-05-08T07:03:58;21.20;98.40
39601;DHT22;25297;44.758;11.310;2023-05-08T07:06:25;21.20;98.40
39601;DHT22;25297;44.758;11.310;2023-05-08T07:08:52;21.20;98.20
39601;DHT22;25297;44.758;11.310;2023-05-08T07:11:18;21.30;98.20
39601;DHT22;25297;44.758;11.310;2023-05-08T07:13:43;21.30;98.10
39601;DHT22;25297;44.758;11.310;2023-05-08T07:16:12;21.30;98.10
39601;DHT22;25297;44.758;11.310;2023-05-08T07:18:38;21.30;97.90
39601;DHT22;25297;44.758;11.310;2023-05-08T07:21:04;21.30;97.80
39601;DHT22;25297;44.758;11.310;2023-05-08T07:23:29;21.30;97.70
39601;DHT22;25297;44.758;11.310;2023-05-08T07:25:55;21.30;97.80
39601;DHT22;25297;44.758;11.310;2023-05-08T07:28:22;21.30;97.70
39601;DHT22;25297;44.758;11.310;2023-05-08T07:30:48;21.40;97.60
39601;DHT22;25297;44.758;11.310;2023-05-08T07:33:13;21.40;97.70
39601;DHT22;25297;44.758;11.310;2023-05-08T07:35:40;21.40;98.10
39601;DHT22;25297;44.758;11.310;2023-05-08T07:38:06;21.40;98.10
39601;DHT22;25297;44.758;11.310;2023-05-08T07:40:31;21.50;98.30
39601;DHT22;25297;44.758;11.310;2023-05-08T07:42:57;21.50;98.30
39601;DHT22;25297;44.758;11.310;2023-05-08T07:45:23;21.50;98.30
39601;DHT22;25297;44.758;11.310;2023-05-08T07:47:53;21.50;98.20
39601;DHT22;25297;44.758;11.310;2023-05-08T07:50:21;21.50;98.10
39601;DHT22;25297;44.758;11.310;2023-05-08T07:52:47;21.60;97.80
39601;DHT22;25297;44.758;11.310;2023-05-08T07:55:13;21.60;97.80
39601;DHT22;25297;44.758;11.310;2023-05-08T07:57:40;21.60;97.70
39601;DHT22;25297;44.758;11.310;2023-05-08T08:00:08;21.60;97.50
39601;DHT22;25297;44.758;11.310;2023-05-08T08:02:34;21.60;97.60
39601;DHT22;25297;44.758;11.310;2023-05-08T08:04:59;21.60;98.00
39601;DHT22;25297;44.758;11.310;2023-05-08T08:07:25;21.60;97.70
39601;DHT22;25297;44.758;11.310;2023-05-08T08:09:51;21.60;97.50
39601;DHT22;25297;44.758;11.310;2023-05-08T08:12:17;21.60;97.40
39601;DHT22;25297;44.758;11.310;2023-05-08T08:14:43;21.60;97.20
39601;DHT22;25297;44.758;11.310;2023-05-08T08:17:08;21.60;96.90
39601;DHT22;25297;44.758;11.310;2023-05-08T08:19:34;21.60;96.70
39601;DHT22;25297;44.758;11.310;2023-05-08T08:21:59;21.70;97.00
39601;DHT22;25297;44.758;11.310;2023-05-08T08:24:25;21.70;97.10
39601;DHT22;25297;44.758;11.310;2023-05-08T08:26:53;21.70;97.20
39601;DHT22;25297;44.758;11.310;2023-05-08T08:29:19;21.70;97.20
39601;DHT22;25297;44.758;11.310;2023-05-08T08:31:44;21.80;97.10
39601;DHT22;25297;44.758;11.310;2023-05-08T08:34:10;21.80;97.30
39601;DHT22;25297;44.758;11.310;2023-05-08T08:36:36;21.80;97.00
39601;DHT22;25297;44.758;11.310;2023-05-08T08:39:01;21.90;96.90
39601;DHT22;25297;44.758;11.310;2023-05-08T08:41:27;21.90;96.80
39601;DHT22;25297;44.758;11.310;2023-05-08T08:43:54;21.90;96.50
39601;DHT22;25297;44.758;11.310;2023-05-08T08:46:23;21.90;96.30
39601;DHT22;25297;44.758;11.310;2023-05-08T08:48:50;21.90;96.30
39601;DHT22;25297;44.758;11.310;2023-05-08T08:51:50;21.90;96.40
39601;DHT22;25297;44.758;11.310;2023-05-08T08:54:20;22.00;96.20
39601;DHT22;25297;44.758;11.310;2023-05-08T08:56:49;21.90;95.00
39601;DHT22;25297;44.758;11.310;2023-05-08T08:59:16;22.00;95.40
39601;DHT22;25297;44.758;11.310;2023-05-08T09:01:49;22.00;96.20
39601;DHT22;25297;44.758;11.310;2023-05-08T09:04:18;22.00;93.90
39601;DHT22;25297;44.758;11.310;2023-05-08T09:06:44;22.00;93.40
39601;DHT22;25297;44.758;11.310;2023-05-08T09:09:11;22.00;93.20
39601;DHT22;25297;44.758;11.310;2023-05-08T09:11:39;22.00;94.10
39601;DHT22;25297;44.758;11.310;2023-05-08T09:14:05;22.00;94.20
39601;DHT22;25297;44.758;11.310;2023-05-08T09:16:31;22.00;93.50
39601;DHT22;25297;44.758;11.310;2023-05-08T09:18:57;22.00;93.70
39601;DHT22;25297;44.758;11.310;2023-05-08T09:21:23;22.00;93.30
39601;DHT22;25297;44.758;11.310;2023-05-08T09:24:03;22.00;92.90
39601;DHT22;25297;44.758;11.310;2023-05-08T09:26:36;22.10;93.00
39601;DHT22;25297;44.758;11.310;2023-05-08T09:29:31;22.10;93.80
39601;DHT22;25297;44.758;11.310;2023-05-08T09:31:57;22.10;92.50
39601;DHT22;25297;44.758;11.310;2023-05-08T09:39:34;22.10;92.80
39601;DHT22;25297;44.758;11.310;2023-05-08T09:42:02;22.20;92.70
39601;DHT22;25297;44.758;11.310;2023-05-08T09:47:20;22.20;92.00
39601;DHT22;25297;44.758;11.310;2023-05-08T09:49:59;22.20;91.70
39601;DHT22;25297;44.758;11.310;2023-05-08T09:52:26;22.20;91.80
39601;DHT22;25297;44.758;11.310;2023-05-08T09:57:30;22.20;92.60
39601;DHT22;25297;44.758;11.310;2023-05-08T10:00:01;22.20;92.40
39601;DHT22;25297;44.758;11.310;2023-05-08T10:02:28;22.30;92.10
39601;DHT22;25297;44.758;11.310;2023-05-08T10:04:53;22.30;92.40
39601;DHT22;25297;44.758;11.310;2023-05-08T10:07:33;22.30;92.30
39601;DHT22;25297;44.758;11.310;2023-05-08T10:10:00;22.30;92.10
39601;DHT22;25297;44.758;11.310;2023-05-08T10:12:27;22.40;92.60
39601;DHT22;25297;44.758;11.310;2023-05-08T10:14:53;22.40;92.80
39601;DHT22;25297;44.758;11.310;2023-05-08T10:17:25;22.50;92.90
39601;DHT22;25297;44.758;11.310;2023-05-08T10:19:58;22.60;93.00
39601;DHT22;25297;44.758;11.310;2023-05-08T10:22:25;22.60;92.30
39601;DHT22;25297;44.758;11.310;2023-05-08T10:24:56;22.70;91.90
39601;DHT22;25297;44.758;11.310;2023-05-08T10:30:19;22.70;91.80
39601;DHT22;25297;44.758;11.310;2023-05-08T10:32:50;22.70;91.10
39601;DHT22;25297;44.758;11.310;2023-05-08T10:35:19;22.70;91.20
39601;DHT22;25297;44.758;11.310;2023-05-08T10:37:47;22.70;91.50
39601;DHT22;25297;44.758;11.310;2023-05-08T10:40:13;22.70;91.20
39601;DHT22;25297;44.758;11.310;2023-05-08T10:42:44;22.70;91.00
39601;DHT22;25297;44.758;11.310;2023-05-08T10:45:10;22.70;91.40
39601;DHT22;25297;44.758;11.310;2023-05-08T10:53:52;22.80;90.40
39601;DHT22;25297;44.758;11.310;2023-05-08T10:56:26;22.80;90.00
39601;DHT22;25297;44.758;11.310;2023-05-08T10:58:58;22.80;90.10
39601;DHT22;25297;44.758;11.310;2023-05-08T11:01:26;22.80;89.70
39601;DHT22;25297;44.758;11.310;2023-05-08T11:03:52;22.80;89.60
39601;DHT22;25297;44.758;11.310;2023-05-08T11:06:42;22.80;89.10
39601;DHT22;25297;44.758;11.310;2023-05-08T11:09:27;22.80;89.50
39601;DHT22;25297;44.758;11.310;2023-05-08T11:12:17;22.90;88.80
39601;DHT22;25297;44.758;11.310;2023-05-08T11:14:57;22.90;88.10
39601;DHT22;25297;44.758;11.310;2023-05-08T11:17:24;22.90;89.60
39601;DHT22;25297;44.758;11.310;2023-05-08T11:20:09;23.00;88.80
39601;DHT22;25297;44.758;11.310;2023-05-08T11:22:35;23.00;87.20
39601;DHT22;25297;44.758;11.310;2023-05-08T11:41:09;23.30;86.20
39601;DHT22;25297;44.758;11.310;2023-05-08T11:44:03;23.30;84.90
39601;DHT22;25297;44.758;11.310;2023-05-08T11:49:13;23.40;83.50
39601;DHT22;25297;44.758;11.310;2023-05-08T11:51:45;23.40;81.50
39601;DHT22;25297;44.758;11.310;2023-05-08T11:54:16;23.40;82.30
39601;DHT22;25297;44.758;11.310;2023-05-08T11:56:44;23.50;83.00
39601;DHT22;25297;44.758;11.310;2023-05-08T11:59:10;23.50;83.00
39601;DHT22;25297;44.758;11.310;2023-05-08T12:01:36;23.50;83.60
39601;DHT22;25297;44.758;11.310;2023-05-08T12:04:03;23.60;84.40
39601;DHT22;25297;44.758;11.310;2023-05-08T12:06:30;23.60;84.00
39601;DHT22;25297;44.758;11.310;2023-05-08T12:08:57;23.60;82.70
39601;DHT22;25297;44.758;11.310;2023-05-08T12:11:23;23.60;82.40
39601;DHT22;25297;44.758;11.310;2023-05-08T12:13:50;23.60;81.60
39601;DHT22;25297;44.758;11.310;2023-05-08T12:16:16;23.60;82.60
39601;DHT22;25297;44.758;11.310;2023-05-08T12:18:42;23.60;83.80
39601;DHT22;25297;44.758;11.310;2023-05-08T12:21:09;23.60;83.60
39601;DHT22;25297;44.758;11.310;2023-05-08T12:23:36;23.50;84.20
39601;DHT22;25297;44.758;11.310;2023-05-08T12:26:03;23.60;83.30
39601;DHT22;25297;44.758;11.310;2023-05-08T12:28:29;23.50;83.40
39601;DHT22;25297;44.758;11.310;2023-05-08T12:30:59;23.50;82.70
39601;DHT22;25297;44.758;11.310;2023-05-08T12:33:25;23.50;83.80
39601;DHT22;25297;44.758;11.310;2023-05-08T12:35:51;23.40;82.80
39601;DHT22;25297;44.758;11.310;2023-05-08T12:38:17;23.40;82.60
39601;DHT22;25297;44.758;11.310;2023-05-08T12:40:44;23.40;82.50
39601;DHT22;25297;44.758;11.310;2023-05-08T12:43:10;23.40;81.80
39601;DHT22;25297;44.758;11.310;2023-05-08T12:45:38;23.40;82.80
39601;DHT22;25297;44.758;11.310;2023-05-08T12:48:08;23.40;82.80
39601;DHT22;25297;44.758;11.310;2023-05-08T12:50:36;23.40;82.70
39601;DHT22;25297;44.758;11.310;2023-05-08T12:53:10;23.40;83.30
39601;DHT22;25297;44.758;11.310;2023-05-08T12:55:37;23.40;82.40
39601;DHT22;25297;44.758;11.310;2023-05-08T12:58:11;23.40;82.60
39601;DHT22;25297;44.758;11.310;2023-05-08T13:00:39;23.50;83.20
39601;DHT22;25297;44.758;11.310;2023-05-08T13:03:06;23.50;83.30
39601;DHT22;25297;44.758;11.310;2023-05-08T13:05:37;23.50;81.60
39601;DHT22;25297;44.758;11.310;2023-05-08T13:08:06;23.60;81.00
39601;DHT22;25297;44.758;11.310;2023-05-08T13:10:45;23.60;80.80
39601;DHT22;25297;44.758;11.310;2023-05-08T13:13:12;23.50;80.50
39601;DHT22;25297;44.758;11.310;2023-05-08T13:15:37;23.50;81.10
39601;DHT22;25297;44.758;11.310;2023-05-08T13:18:03;23.50;82.20
39601;DHT22;25297;44.758;11.310;2023-05-08T13:20:29;23.50;82.20
39601;DHT22;25297;44.758;11.310;2023-05-08T13:22:54;23.50;82.60
39601;DHT22;25297;44.758;11.310;2023-05-08T13:25:20;23.50;82.70
39601;DHT22;25297;44.758;11.310;2023-05-08T13:27:46;23.50;82.00
39601;DHT22;25297;44.758;11.310;2023-05-08T13:30:12;23.50;81.60
39601;DHT22;25297;44.758;11.310;2023-05-08T13:32:39;23.50;82.60
39601;DHT22;25297;44.758;11.310;2023-05-08T13:35:05;23.50;82.30
39601;DHT22;25297;44.758;11.310;2023-05-08T13:37:31;23.50;81.90
39601;DHT22;25297;44.758;11.310;2023-05-08T13:39:57;23.50;80.90
39601;DHT22;25297;44.758;11.310;2023-05-08T13:42:22;23.50;80.30
39601;DHT22;25297;44.758;11.310;2023-05-08T13:44:48;23.60;80.80
39601;DHT22;25297;44.758;11.310;2023-05-08T13:47:14;23.50;82.10
39601;DHT22;25297;44.758;11.310;2023-05-08T13:49:39;23.60;81.90
39601;DHT22;25297;44.758;11.310;2023-05-08T13:52:05;23.50;82.30
39601;DHT22;25297;44.758;11.310;2023-05-08T13:54:31;23.50;82.60
39601;DHT22;25297;44.758;11.310;2023-05-08T13:56:56;23.60;82.80
39601;DHT22;25297;44.758;11.310;2023-05-08T13:59:22;23.60;81.20
39601;DHT22;25297;44.758;11.310;2023-05-08T14:01:47;23.60;81.20
39601;DHT22;25297;44.758;11.310;2023-05-08T14:04:13;23.60;81.70
39601;DHT22;25297;44.758;11.310;2023-05-08T14:06:41;23.60;81.50
39601;DHT22;25297;44.758;11.310;2023-05-08T14:09:06;23.60;81.80
39601;DHT22;25297;44.758;11.310;2023-05-08T14:11:32;23.60;81.70
39601;DHT22;25297;44.758;11.310;2023-05-08T14:13:58;23.60;80.90
39601;DHT22;25297;44.758;11.310;2023-05-08T14:16:23;23.60;81.40
39601;DHT22;25297;44.758;11.310;2023-05-08T14:18:49;23.30;81.00
39601;DHT22;25297;44.758;11.310;2023-05-08T14:21:15;23.60;81.00
39601;DHT22;25297;44.758;11.310;2023-05-08T14:23:40;23.60;81.50
39601;DHT22;25297;44.758;11.310;2023-05-08T14:26:07;23.70;81.80
39601;DHT22;25297;44.758;11.310;2023-05-08T14:28:35;23.70;82.50
39601;DHT22;25297;44.758;11.310;2023-05-08T14:31:00;23.70;82.30
39601;DHT22;25297;44.758;11.310;2023-05-08T14:33:26;23.70;81.50
39601;DHT22;25297;44.758;11.310;2023-05-08T14:35:52;23.70;81.00
39601;DHT22;25297;44.758;11.310;2023-05-08T14:38:17;23.70;81.00
39601;DHT22;25297;44.758;11.310;2023-05-08T14:40:43;23.80;81.00
39601;DHT22;25297;44.758;11.310;2023-05-08T14:43:08;23.80;80.20
39601;DHT22;25297;44.758;11.310;2023-05-08T14:45:34;23.70;79.50
39601;DHT22;25297;44.758;11.310;2023-05-08T14:48:00;23.70;78.80
39601;DHT22;25297;44.758;11.310;2023-05-08T14:50:26;23.70;79.10
39601;DHT22;25297;44.758;11.310;2023-05-08T14:52:52;23.70;79.70
39601;DHT22;25297;44.758;11.310;2023-05-08T14:55:18;23.70;80.50
39601;DHT22;25297;44.758;11.310;2023-05-08T14:57:48;23.80;82.30
39601;DHT22;25297;44.758;11.310;2023-05-08T15:00:15;23.80;83.60
39601;DHT22;25297;44.758;11.310;2023-05-08T15:02:41;23.80;84.00
39601;DHT22;25297;44.758;11.310;2023-05-08T15:05:08;23.70;84.20
39601;DHT22;25297;44.758;11.310;2023-05-08T15:07:33;23.80;84.40
39601;DHT22;25297;44.758;11.310;2023-05-08T15:10:00;23.70;84.30
39601;DHT22;25297;44.758;11.310;2023-05-08T15:12:25;23.70;84.70
39601;DHT22;25297;44.758;11.310;2023-05-08T15:14:51;23.70;85.00
39601;DHT22;25297;44.758;11.310;2023-05-08T15:17:16;23.80;84.80
39601;DHT22;25297;44.758;11.310;2023-05-08T15:19:42;23.80;85.00
39601;DHT22;25297;44.758;11.310;2023-05-08T15:22:12;23.80;85.20
39601;DHT22;25297;44.758;11.310;2023-05-08T15:24:40;23.80;84.40
39601;DHT22;25297;44.758;11.310;2023-05-08T15:27:06;23.80;85.50
39601;DHT22;25297;44.758;11.310;2023-05-08T15:29:36;23.80;84.20
39601;DHT22;25297;44.758;11.310;2023-05-08T15:32:09;23.80;83.80
39601;DHT22;25297;44.758;11.310;2023-05-08T15:34:34;23.70;84.10
39601;DHT22;25297;44.758;11.310;2023-05-08T15:37:00;23.70;84.00
39601;DHT22;25297;44.758;11.310;2023-05-08T15:39:26;23.70;83.80
39601;DHT22;25297;44.758;11.310;2023-05-08T15:41:51;23.70;84.30
39601;DHT22;25297;44.758;11.310;2023-05-08T15:44:20;23.70;83.90
39601;DHT22;25297;44.758;11.310;2023-05-08T15:46:45;23.70;84.40
39601;DHT22;25297;44.758;11.310;2023-05-08T15:49:11;23.60;84.80
39601;DHT22;25297;44.758;11.310;2023-05-08T15:51:37;23.60;85.00
39601;DHT22;25297;44.758;11.310;2023-05-08T15:54:05;23.60;85.60
39601;DHT22;25297;44.758;11.310;2023-05-08T15:56:30;23.60;86.30
39601;DHT22;25297;44.758;11.310;2023-05-08T15:58:57;23.70;85.70
39601;DHT22;25297;44.758;11.310;2023-05-08T16:01:22;23.70;85.60
39601;DHT22;25297;44.758;11.310;2023-05-08T16:03:48;23.60;85.20
39601;DHT22;25297;44.758;11.310;2023-05-08T16:06:13;23.60;85.70
39601;DHT22;25297;44.758;11.310;2023-05-08T16:08:39;23.60;85.90
39601;DHT22;25297;44.758;11.310;2023-05-08T16:11:05;23.60;86.40
39601;DHT22;25297;44.758;11.310;2023-05-08T16:13:30;23.60;86.50
39601;DHT22;25297;44.758;11.310;2023-05-08T16:16:03;23.60;86.80
39601;DHT22;25297;44.758;11.310;2023-05-08T16:18:31;23.60;87.40
39601;DHT22;25297;44.758;11.310;2023-05-08T16:20:57;23.60;87.60